Terminal Aerodrome Forecast
Issued by NWS

Current Version | Previous Version | Text Only | Print | Product List | Glossary On
Versions: 1 2 3 4 5 6 7 8 9 10 11 12
000
FTUS45 KRIW 282300
TAFLND
TAF
KLND 282324Z 2900/2924 16008KT P6SM FEW090
     FM290300 24007KT P6SM SKC
     FM290700 VRB05KT P6SM SCT100 BKN150
     FM292100 VRB10G15KT P6SM VCTS SCT070CB BKN120=

USA.gov is the U.S. government's official web portal to all federal, state and local government web resources and services.